sensor_id;sensor_type;location;lat;lon;timestamp;pressure;altitude;pressure_sealevel;temperature;humidity
10978;BME280;5542;48.272;10.794;2023-04-20T00:02:03;95584.53;;;5.31;91.76
10978;BME280;5542;48.272;10.794;2023-04-20T00:04:29;95572.09;;;5.27;91.05
10978;BME280;5542;48.272;10.794;2023-04-20T00:06:56;95567.47;;;5.09;91.55
10978;BME280;5542;48.272;10.794;2023-04-20T00:09:22;95563.25;;;5.08;91.85
10978;BME280;5542;48.272;10.794;2023-04-20T00:11:51;95559.03;;;5.07;91.78
10978;BME280;5542;48.272;10.794;2023-04-20T00:14:17;95557.81;;;4.90;93.05
10978;BME280;5542;48.272;10.794;2023-04-20T00:16:44;95558.63;;;4.97;94.00
10978;BME280;5542;48.272;10.794;2023-04-20T00:19:11;95551.63;;;5.04;94.50
10978;BME280;5542;48.272;10.794;2023-04-20T00:21:37;95549.44;;;5.14;94.05
10978;BME280;5542;48.272;10.794;2023-04-20T00:24:04;95536.00;;;5.10;94.13
10978;BME280;5542;48.272;10.794;2023-04-20T00:26:31;95531.16;;;5.07;93.96
10978;BME280;5542;48.272;10.794;2023-04-20T00:28:58;95527.38;;;5.03;93.55
10978;BME280;5542;48.272;10.794;2023-04-20T00:31:25;95518.75;;;5.09;92.94
10978;BME280;5542;48.272;10.794;2023-04-20T00:33:52;95515.91;;;4.98;93.12
10978;BME280;5542;48.272;10.794;2023-04-20T00:36:18;95510.09;;;4.96;93.13
10978;BME280;5542;48.272;10.794;2023-04-20T00:38:45;95507.88;;;4.86;94.01
10978;BME280;5542;48.272;10.794;2023-04-20T00:41:11;95510.28;;;4.87;94.81
10978;BME280;5542;48.272;10.794;2023-04-20T00:43:48;95510.91;;;4.96;95.34
10978;BME280;5542;48.272;10.794;2023-04-20T00:46:16;95507.91;;;5.06;95.50
10978;BME280;5542;48.272;10.794;2023-04-20T00:48:43;95505.53;;;5.18;94.10
10978;BME280;5542;48.272;10.794;2023-04-20T00:51:10;95501.09;;;5.11;93.50
10978;BME280;5542;48.272;10.794;2023-04-20T00:53:36;95515.13;;;5.17;93.82
10978;BME280;5542;48.272;10.794;2023-04-20T00:56:03;95505.91;;;5.21;93.94
10978;BME280;5542;48.272;10.794;2023-04-20T00:58:30;95505.13;;;5.27;94.04
10978;BME280;5542;48.272;10.794;2023-04-20T01:00:57;95491.88;;;5.35;92.83
10978;BME280;5542;48.272;10.794;2023-04-20T01:03:25;95484.66;;;5.31;91.14
10978;BME280;5542;48.272;10.794;2023-04-20T01:05:51;95490.88;;;5.23;91.51
10978;BME280;5542;48.272;10.794;2023-04-20T01:08:18;95490.06;;;5.16;91.71
10978;BME280;5542;48.272;10.794;2023-04-20T01:10:45;95484.84;;;5.16;92.26
10978;BME280;5542;48.272;10.794;2023-04-20T01:13:11;95472.63;;;5.23;92.55
10978;BME280;5542;48.272;10.794;2023-04-20T01:15:38;95473.03;;;5.20;91.65
10978;BME280;5542;48.272;10.794;2023-04-20T01:18:04;95468.44;;;5.09;91.57
10978;BME280;5542;48.272;10.794;2023-04-20T01:20:32;95462.81;;;5.05;91.97
10978;BME280;5542;48.272;10.794;2023-04-20T01:23:00;95467.81;;;5.07;92.17
10978;BME280;5542;48.272;10.794;2023-04-20T01:25:27;95464.19;;;5.08;92.14
10978;BME280;5542;48.272;10.794;2023-04-20T01:27:54;95456.38;;;5.14;92.28
10978;BME280;5542;48.272;10.794;2023-04-20T01:30:20;95464.59;;;5.25;92.22
10978;BME280;5542;48.272;10.794;2023-04-20T01:32:47;95462.81;;;5.32;92.13
10978;BME280;5542;48.272;10.794;2023-04-20T01:35:14;95456.16;;;5.36;91.89
10978;BME280;5542;48.272;10.794;2023-04-20T01:37:41;95459.59;;;5.30;91.01
10978;BME280;5542;48.272;10.794;2023-04-20T01:40:11;95450.78;;;5.24;90.40
10978;BME280;5542;48.272;10.794;2023-04-20T01:42:38;95457.38;;;5.20;90.97
10978;BME280;5542;48.272;10.794;2023-04-20T01:45:06;95456.38;;;5.21;91.07
10978;BME280;5542;48.272;10.794;2023-04-20T01:47:33;95450.97;;;5.16;91.08
10978;BME280;5542;48.272;10.794;2023-04-20T01:49:59;95451.38;;;5.13;91.37
10978;BME280;5542;48.272;10.794;2023-04-20T01:52:26;95452.56;;;5.17;91.51
10978;BME280;5542;48.272;10.794;2023-04-20T01:54:53;95448.97;;;5.25;91.50
10978;BME280;5542;48.272;10.794;2023-04-20T01:57:21;95437.13;;;5.16;90.83
10978;BME280;5542;48.272;10.794;2023-04-20T01:59:47;95441.34;;;5.17;90.19
10978;BME280;5542;48.272;10.794;2023-04-20T02:02:14;95428.50;;;5.02;90.42
10978;BME280;5542;48.272;10.794;2023-04-20T02:04:41;95421.88;;;4.93;91.23
10978;BME280;5542;48.272;10.794;2023-04-20T02:07:07;95425.09;;;4.88;91.50
10978;BME280;5542;48.272;10.794;2023-04-20T02:09:34;95439.31;;;4.79;92.24
10978;BME280;5542;48.272;10.794;2023-04-20T02:12:00;95439.69;;;4.69;92.89
10978;BME280;5542;48.272;10.794;2023-04-20T02:14:28;95439.69;;;4.69;93.40
10978;BME280;5542;48.272;10.794;2023-04-20T02:16:55;95432.88;;;4.68;94.17
10978;BME280;5542;48.272;10.794;2023-04-20T02:19:21;95430.66;;;4.65;94.48
10978;BME280;5542;48.272;10.794;2023-04-20T02:21:48;95428.06;;;4.65;94.88
10978;BME280;5542;48.272;10.794;2023-04-20T02:24:15;95432.88;;;4.68;95.15
10978;BME280;5542;48.272;10.794;2023-04-20T02:26:41;95426.69;;;4.76;94.58
10978;BME280;5542;48.272;10.794;2023-04-20T02:29:08;95424.66;;;4.65;95.00
10978;BME280;5542;48.272;10.794;2023-04-20T02:31:36;95424.47;;;4.66;95.73
10978;BME280;5542;48.272;10.794;2023-04-20T02:34:02;95423.09;;;4.77;96.02
10978;BME280;5542;48.272;10.794;2023-04-20T02:36:30;95434.72;;;4.87;96.11
10978;BME280;5542;48.272;10.794;2023-04-20T02:38:56;95424.69;;;4.78;95.43
10978;BME280;5542;48.272;10.794;2023-04-20T02:41:23;95414.69;;;4.75;95.32
10978;BME280;5542;48.272;10.794;2023-04-20T02:43:49;95413.84;;;4.68;95.22
10978;BME280;5542;48.272;10.794;2023-04-20T02:46:16;95411.63;;;4.65;95.06
10978;BME280;5542;48.272;10.794;2023-04-20T02:48:44;95412.06;;;4.61;95.76
10978;BME280;5542;48.272;10.794;2023-04-20T02:51:11;95410.03;;;4.63;95.69
10978;BME280;5542;48.272;10.794;2023-04-20T02:53:37;95407.81;;;4.54;96.37
10978;BME280;5542;48.272;10.794;2023-04-20T02:56:04;95404.41;;;4.60;96.38
10978;BME280;5542;48.272;10.794;2023-04-20T02:58:30;95406.44;;;4.58;96.41
10978;BME280;5542;48.272;10.794;2023-04-20T03:01:00;95403.63;;;4.53;96.74
10978;BME280;5542;48.272;10.794;2023-04-20T03:03:28;95393.59;;;4.50;97.10
10978;BME280;5542;48.272;10.794;2023-04-20T03:05:56;95397.19;;;4.49;97.18
10978;BME280;5542;48.272;10.794;2023-04-20T03:08:22;95393.19;;;4.40;97.87
10978;BME280;5542;48.272;10.794;2023-04-20T03:10:49;95396.19;;;4.43;98.51
10978;BME280;5542;48.272;10.794;2023-04-20T03:13:16;95384.78;;;4.51;98.31
10978;BME280;5542;48.272;10.794;2023-04-20T03:15:42;95382.41;;;4.56;98.09
10978;BME280;5542;48.272;10.794;2023-04-20T03:18:09;95376.38;;;4.49;97.38
10978;BME280;5542;48.272;10.794;2023-04-20T03:20:36;95377.56;;;4.33;98.16
10978;BME280;5542;48.272;10.794;2023-04-20T03:23:04;95373.94;;;4.27;98.81
10978;BME280;5542;48.272;10.794;2023-04-20T03:25:30;95382.34;;;4.29;99.21
10978;BME280;5542;48.272;10.794;2023-04-20T03:27:57;95380.34;;;4.31;99.28
10978;BME280;5542;48.272;10.794;2023-04-20T03:30:24;95374.75;;;4.41;99.67
10978;BME280;5542;48.272;10.794;2023-04-20T03:32:50;95377.56;;;4.53;99.15
10978;BME280;5542;48.272;10.794;2023-04-20T03:35:17;95372.75;;;4.43;98.81
10978;BME280;5542;48.272;10.794;2023-04-20T03:37:45;95375.34;;;4.50;98.91
10978;BME280;5542;48.272;10.794;2023-04-20T03:40:13;95362.16;;;4.51;98.77
10978;BME280;5542;48.272;10.794;2023-04-20T03:42:40;95368.34;;;4.50;98.57
10978;BME280;5542;48.272;10.794;2023-04-20T03:45:07;95363.56;;;4.60;97.56
10978;BME280;5542;48.272;10.794;2023-04-20T03:47:34;95368.16;;;4.58;97.27
10978;BME280;5542;48.272;10.794;2023-04-20T03:50:00;95364.31;;;4.28;98.39
10978;BME280;5542;48.272;10.794;2023-04-20T03:52:27;95363.75;;;4.32;98.31
10978;BME280;5542;48.272;10.794;2023-04-20T03:54:53;95365.13;;;4.28;98.79
10978;BME280;5542;48.272;10.794;2023-04-20T03:57:21;95361.53;;;4.29;97.75
10978;BME280;5542;48.272;10.794;2023-04-20T03:59:48;95360.94;;;4.27;98.40
10978;BME280;5542;48.272;10.794;2023-04-20T04:02:15;95355.91;;;4.39;97.31
10978;BME280;5542;48.272;10.794;2023-04-20T04:04:41;95346.69;;;4.23;98.11
10978;BME280;5542;48.272;10.794;2023-04-20T04:07:09;95346.69;;;4.23;98.14
10978;BME280;5542;48.272;10.794;2023-04-20T04:09:35;95352.50;;;4.32;97.55
10978;BME280;5542;48.272;10.794;2023-04-20T04:12:02;95346.50;;;4.31;97.85
10978;BME280;5542;48.272;10.794;2023-04-20T04:14:32;95348.69;;;4.21;98.65
10978;BME280;5542;48.272;10.794;2023-04-20T04:16:58;95358.75;;;4.38;98.72
10978;BME280;5542;48.272;10.794;2023-04-20T04:19:25;95351.91;;;4.23;98.42
10978;BME280;5542;48.272;10.794;2023-04-20T04:21:52;95357.50;;;4.20;98.32
10978;BME280;5542;48.272;10.794;2023-04-20T04:24:18;95357.50;;;4.20;98.78
10978;BME280;5542;48.272;10.794;2023-04-20T04:26:45;95346.06;;;4.21;98.59
10978;BME280;5542;48.272;10.794;2023-04-20T04:29:12;95342.50;;;4.29;98.94
10978;BME280;5542;48.272;10.794;2023-04-20T04:31:41;95347.09;;;4.20;98.49
10978;BME280;5542;48.272;10.794;2023-04-20T04:34:08;95349.50;;;4.28;98.64
10978;BME280;5542;48.272;10.794;2023-04-20T04:36:34;95344.47;;;4.20;98.71
10978;BME280;5542;48.272;10.794;2023-04-20T04:39:01;95347.47;;;4.17;99.17
10978;BME280;5542;48.272;10.794;2023-04-20T04:41:27;95340.91;;;4.34;98.87
10978;BME280;5542;48.272;10.794;2023-04-20T04:43:54;95341.50;;;4.23;98.44
10978;BME280;5542;48.272;10.794;2023-04-20T04:46:23;95329.06;;;4.25;98.59
10978;BME280;5542;48.272;10.794;2023-04-20T04:48:51;95338.28;;;4.28;97.81
10978;BME280;5542;48.272;10.794;2023-04-20T04:51:18;95330.66;;;4.13;98.84
10978;BME280;5542;48.272;10.794;2023-04-20T04:53:44;95327.50;;;4.38;98.48
10978;BME280;5542;48.272;10.794;2023-04-20T04:56:11;95324.28;;;4.29;98.22
10978;BME280;5542;48.272;10.794;2023-04-20T04:58:38;95325.88;;;4.30;97.85
10978;BME280;5542;48.272;10.794;2023-04-20T05:01:04;95328.25;;;4.11;97.59
10978;BME280;5542;48.272;10.794;2023-04-20T05:03:31;95337.47;;;4.21;98.73
10978;BME280;5542;48.272;10.794;2023-04-20T05:05:59;95327.44;;;4.18;98.74
10978;BME280;5542;48.272;10.794;2023-04-20T05:08:26;95331.47;;;4.14;99.15
10978;BME280;5542;48.272;10.794;2023-04-20T05:10:52;95333.63;;;3.97;100.00
10978;BME280;5542;48.272;10.794;2023-04-20T05:13:19;95332.66;;;4.04;100.00
10978;BME280;5542;48.272;10.794;2023-04-20T05:15:45;95336.47;;;4.08;100.00
10978;BME280;5542;48.272;10.794;2023-04-20T05:18:12;95336.28;;;4.23;100.00
10978;BME280;5542;48.272;10.794;2023-04-20T05:20:38;95330.88;;;4.31;100.00
10978;BME280;5542;48.272;10.794;2023-04-20T05:23:06;95318.44;;;4.20;100.00
10978;BME280;5542;48.272;10.794;2023-04-20T05:25:33;95330.66;;;4.13;99.81
10978;BME280;5542;48.272;10.794;2023-04-20T05:28:00;95329.03;;;4.12;100.00
10978;BME280;5542;48.272;10.794;2023-04-20T05:30:26;95331.28;;;4.28;100.00
10978;BME280;5542;48.272;10.794;2023-04-20T05:32:53;95328.47;;;4.30;100.00
10978;BME280;5542;48.272;10.794;2023-04-20T05:35:19;95328.47;;;4.30;100.00
10978;BME280;5542;48.272;10.794;2023-04-20T05:37:46;95325.47;;;4.26;99.46
10978;BME280;5542;48.272;10.794;2023-04-20T05:40:14;95330.88;;;4.18;99.80
10978;BME280;5542;48.272;10.794;2023-04-20T05:42:41;95323.84;;;4.12;100.00
10978;BME280;5542;48.272;10.794;2023-04-20T05:45:09;95318.44;;;4.14;100.00
10978;BME280;5542;48.272;10.794;2023-04-20T05:47:36;95321.25;;;4.25;100.00
10978;BME280;5542;48.272;10.794;2023-04-20T05:50:03;95326.66;;;4.30;100.00
10978;BME280;5542;48.272;10.794;2023-04-20T05:52:30;95316.66;;;4.21;100.00
10978;BME280;5542;48.272;10.794;2023-04-20T05:54:57;95321.47;;;4.24;100.00
10978;BME280;5542;48.272;10.794;2023-04-20T05:57:25;95314.81;;;4.08;100.00
10978;BME280;5542;48.272;10.794;2023-04-20T05:59:52;95323.03;;;4.11;100.00
10978;BME280;5542;48.272;10.794;2023-04-20T06:02:20;95319.63;;;4.11;100.00
10978;BME280;5542;48.272;10.794;2023-04-20T06:04:46;95323.41;;;4.02;100.00
10978;BME280;5542;48.272;10.794;2023-04-20T06:07:13;95318.25;;;4.15;100.00
10978;BME280;5542;48.272;10.794;2023-04-20T06:09:39;95325.03;;;4.16;100.00
10978;BME280;5542;48.272;10.794;2023-04-20T06:12:06;95321.44;;;4.10;100.00
10978;BME280;5542;48.272;10.794;2023-04-20T06:14:35;95331.25;;;4.22;100.00
10978;BME280;5542;48.272;10.794;2023-04-20T06:17:01;95332.66;;;4.31;100.00
10978;BME280;5542;48.272;10.794;2023-04-20T06:19:28;95336.28;;;4.23;100.00
10978;BME280;5542;48.272;10.794;2023-04-20T06:21:55;95338.13;;;4.43;100.00
10978;BME280;5542;48.272;10.794;2023-04-20T06:24:22;95339.06;;;4.15;99.55
10978;BME280;5542;48.272;10.794;2023-04-20T06:26:49;95341.66;;;4.15;97.64
10978;BME280;5542;48.272;10.794;2023-04-20T06:29:15;95337.25;;;4.09;96.58
10978;BME280;5542;48.272;10.794;2023-04-20T06:31:43;95333.84;;;4.15;96.14
10978;BME280;5542;48.272;10.794;2023-04-20T06:34:10;95337.25;;;4.22;94.86
10978;BME280;5542;48.272;10.794;2023-04-20T06:36:41;95341.06;;;4.20;95.12
10978;BME280;5542;48.272;10.794;2023-04-20T06:39:07;95343.84;;;4.05;95.40
10978;BME280;5542;48.272;10.794;2023-04-20T06:41:36;95330.22;;;4.03;97.07
10978;BME280;5542;48.272;10.794;2023-04-20T06:44:02;95338.28;;;4.21;96.21
10978;BME280;5542;48.272;10.794;2023-04-20T06:46:29;95326.25;;;4.27;97.47
10978;BME280;5542;48.272;10.794;2023-04-20T06:48:57;95328.28;;;4.25;97.41
10978;BME280;5542;48.272;10.794;2023-04-20T06:51:24;95323.69;;;4.33;97.92
10978;BME280;5542;48.272;10.794;2023-04-20T06:53:51;95327.47;;;4.24;98.32
10978;BME280;5542;48.272;10.794;2023-04-20T06:56:18;95335.09;;;4.32;98.51
10978;BME280;5542;48.272;10.794;2023-04-20T06:58:45;95340.69;;;4.29;98.23
10978;BME280;5542;48.272;10.794;2023-04-20T07:01:12;95341.66;;;4.22;99.23
10978;BME280;5542;48.272;10.794;2023-04-20T07:03:39;95343.69;;;4.20;99.41
10978;BME280;5542;48.272;10.794;2023-04-20T07:06:07;95339.66;;;4.10;99.46
10978;BME280;5542;48.272;10.794;2023-04-20T07:08:35;95334.25;;;3.99;99.19
10978;BME280;5542;48.272;10.794;2023-04-20T07:11:02;95338.22;;;3.95;98.66
10978;BME280;5542;48.272;10.794;2023-04-20T07:13:29;95335.03;;;3.99;99.87
10978;BME280;5542;48.272;10.794;2023-04-20T07:15:56;95335.63;;;4.08;99.53
10978;BME280;5542;48.272;10.794;2023-04-20T07:18:23;95323.44;;;4.08;99.94
10978;BME280;5542;48.272;10.794;2023-04-20T07:20:49;95316.81;;;4.06;100.00
10978;BME280;5542;48.272;10.794;2023-04-20T07:23:18;95321.81;;;3.94;100.00
10978;BME280;5542;48.272;10.794;2023-04-20T07:25:46;95322.63;;;4.08;100.00
10978;BME280;5542;48.272;10.794;2023-04-20T07:28:12;95322.41;;;4.03;100.00
10978;BME280;5542;48.272;10.794;2023-04-20T07:30:39;95325.03;;;4.09;100.00
10978;BME280;5542;48.272;10.794;2023-04-20T07:33:06;95322.63;;;4.08;100.00
10978;BME280;5542;48.272;10.794;2023-04-20T07:35:32;95335.84;;;4.06;100.00
10978;BME280;5542;48.272;10.794;2023-04-20T07:37:59;95331.47;;;4.20;100.00
10978;BME280;5542;48.272;10.794;2023-04-20T07:40:27;95332.47;;;4.19;100.00
10978;BME280;5542;48.272;10.794;2023-04-20T07:42:54;95330.88;;;4.18;100.00
10978;BME280;5542;48.272;10.794;2023-04-20T07:45:21;95344.69;;;4.32;100.00
10978;BME280;5542;48.272;10.794;2023-04-20T07:47:48;95359.09;;;4.21;100.00
10978;BME280;5542;48.272;10.794;2023-04-20T07:50:16;95361.28;;;4.11;100.00
10978;BME280;5542;48.272;10.794;2023-04-20T07:52:43;95352.28;;;4.27;99.76
10978;BME280;5542;48.272;10.794;2023-04-20T07:55:10;95349.88;;;4.25;99.31
10978;BME280;5542;48.272;10.794;2023-04-20T07:57:39;95346.03;;;4.08;100.00
10978;BME280;5542;48.272;10.794;2023-04-20T08:00:07;95352.47;;;4.12;100.00
10978;BME280;5542;48.272;10.794;2023-04-20T08:02:34;95354.72;;;4.28;99.75
10978;BME280;5542;48.272;10.794;2023-04-20T08:05:01;95351.66;;;4.11;98.49
10978;BME280;5542;48.272;10.794;2023-04-20T08:07:28;95355.06;;;4.12;99.20
10978;BME280;5542;48.272;10.794;2023-04-20T08:09:54;95348.88;;;4.13;99.54
10978;BME280;5542;48.272;10.794;2023-04-20T08:12:21;95344.44;;;4.07;98.29
10978;BME280;5542;48.272;10.794;2023-04-20T08:14:49;95348.00;;;3.93;97.78
10978;BME280;5542;48.272;10.794;2023-04-20T08:17:15;95343.81;;;3.92;98.92
10978;BME280;5542;48.272;10.794;2023-04-20T08:19:42;95339.34;;;3.79;98.93
10978;BME280;5542;48.272;10.794;2023-04-20T08:22:08;95327.13;;;3.66;100.00
10978;BME280;5542;48.272;10.794;2023-04-20T08:24:36;95331.81;;;3.97;100.00
10978;BME280;5542;48.272;10.794;2023-04-20T08:27:03;95330.81;;;3.98;100.00
10978;BME280;5542;48.272;10.794;2023-04-20T08:29:30;95325.22;;;3.95;100.00
10978;BME280;5542;48.272;10.794;2023-04-20T08:31:58;95314.22;;;4.06;100.00
10978;BME280;5542;48.272;10.794;2023-04-20T08:34:25;95316.03;;;4.05;100.00
10978;BME280;5542;48.272;10.794;2023-04-20T08:36:51;95311.66;;;4.19;100.00
10978;BME280;5542;48.272;10.794;2023-04-20T08:39:19;95313.25;;;4.20;100.00
10978;BME280;5542;48.272;10.794;2023-04-20T08:41:48;95312.84;;;4.36;100.00
10978;BME280;5542;48.272;10.794;2023-04-20T08:44:18;95310.44;;;4.22;99.57
10978;BME280;5542;48.272;10.794;2023-04-20T08:46:46;95309.44;;;4.09;98.21
10978;BME280;5542;48.272;10.794;2023-04-20T08:49:15;95311.03;;;4.17;99.38
10978;BME280;5542;48.272;10.794;2023-04-20T08:51:43;95308.84;;;4.14;98.65
10978;BME280;5542;48.272;10.794;2023-04-20T08:54:10;95323.25;;;4.17;99.01
10978;BME280;5542;48.272;10.794;2023-04-20T08:56:39;95322.66;;;4.21;98.42
10978;BME280;5542;48.272;10.794;2023-04-20T08:59:06;95314.66;;;4.29;97.82
10978;BME280;5542;48.272;10.794;2023-04-20T09:01:34;95308.03;;;4.20;98.57
10978;BME280;5542;48.272;10.794;2023-04-20T09:04:02;95301.44;;;4.31;98.07
10978;BME280;5542;48.272;10.794;2023-04-20T09:06:43;95300.25;;;4.33;97.98
10978;BME280;5542;48.272;10.794;2023-04-20T09:09:10;95288.41;;;4.18;99.05
10978;BME280;5542;48.272;10.794;2023-04-20T09:11:37;95304.63;;;4.20;98.65
10978;BME280;5542;48.272;10.794;2023-04-20T09:14:05;95306.84;;;4.23;97.19
10978;BME280;5542;48.272;10.794;2023-04-20T09:16:35;95312.22;;;4.21;97.33
10978;BME280;5542;48.272;10.794;2023-04-20T09:19:02;95316.22;;;4.17;96.95
10978;BME280;5542;48.272;10.794;2023-04-20T09:21:28;95315.06;;;4.20;97.70
10978;BME280;5542;48.272;10.794;2023-04-20T09:23:58;95303.63;;;4.21;97.69
10978;BME280;5542;48.272;10.794;2023-04-20T09:26:25;95298.84;;;4.24;97.93
10978;BME280;5542;48.272;10.794;2023-04-20T09:28:51;95294.81;;;4.15;98.62
10978;BME280;5542;48.272;10.794;2023-04-20T09:31:19;95288.63;;;4.29;98.87
10978;BME280;5542;48.272;10.794;2023-04-20T09:33:54;95282.59;;;4.22;97.79
10978;BME280;5542;48.272;10.794;2023-04-20T09:36:21;95278.63;;;4.33;98.81
10978;BME280;5542;48.272;10.794;2023-04-20T09:38:48;95271.81;;;4.52;99.18
10978;BME280;5542;48.272;10.794;2023-04-20T09:41:29;95262.97;;;4.66;96.76
10978;BME280;5542;48.272;10.794;2023-04-20T09:43:58;95275.41;;;4.51;97.32
10978;BME280;5542;48.272;10.794;2023-04-20T09:46:27;95268.59;;;4.50;96.75
10978;BME280;5542;48.272;10.794;2023-04-20T09:48:54;95269.59;;;4.49;95.49
10978;BME280;5542;48.272;10.794;2023-04-20T09:51:21;95264.19;;;4.50;95.74
10978;BME280;5542;48.272;10.794;2023-04-20T09:53:48;95279.19;;;4.55;97.78
10978;BME280;5542;48.272;10.794;2023-04-20T09:56:16;95277.41;;;4.55;96.70
10978;BME280;5542;48.272;10.794;2023-04-20T09:58:45;95271.78;;;4.65;96.34
10978;BME280;5542;48.272;10.794;2023-04-20T10:01:12;95275.38;;;4.64;96.22
10978;BME280;5542;48.272;10.794;2023-04-20T10:03:40;95281.19;;;4.86;95.66
10978;BME280;5542;48.272;10.794;2023-04-20T10:06:17;95278.19;;;4.69;93.91
10978;BME280;5542;48.272;10.794;2023-04-20T10:08:44;95275.78;;;4.74;94.23
10978;BME280;5542;48.272;10.794;2023-04-20T10:11:23;95271.59;;;4.60;93.24
10978;BME280;5542;48.272;10.794;2023-04-20T10:13:51;95273.63;;;4.51;94.33
10978;BME280;5542;48.272;10.794;2023-04-20T10:16:18;95266.78;;;4.57;94.52
10978;BME280;5542;48.272;10.794;2023-04-20T10:18:55;95262.78;;;4.61;94.56
10978;BME280;5542;48.272;10.794;2023-04-20T10:21:21;95262.19;;;4.59;94.81
10978;BME280;5542;48.272;10.794;2023-04-20T10:23:48;95279.41;;;4.67;96.05
10978;BME280;5542;48.272;10.794;2023-04-20T10:26:15;95281.41;;;4.71;93.75
10978;BME280;5542;48.272;10.794;2023-04-20T10:28:42;95287.25;;;4.47;94.10
10978;BME280;5542;48.272;10.794;2023-04-20T10:31:10;95277.19;;;4.30;95.23
10978;BME280;5542;48.272;10.794;2023-04-20T10:33:50;95277.03;;;4.52;96.73
10978;BME280;5542;48.272;10.794;2023-04-20T10:36:25;95293.63;;;4.44;96.55
10978;BME280;5542;48.272;10.794;2023-04-20T10:38:52;95283.44;;;4.43;95.64
10978;BME280;5542;48.272;10.794;2023-04-20T10:41:19;95291.81;;;4.31;96.71
10978;BME280;5542;48.272;10.794;2023-04-20T10:43:46;95291.81;;;4.31;97.81
10978;BME280;5542;48.272;10.794;2023-04-20T10:46:15;95279.59;;;4.45;97.23
10978;BME280;5542;48.272;10.794;2023-04-20T10:48:51;95282.63;;;4.49;97.13
10978;BME280;5542;48.272;10.794;2023-04-20T10:51:19;95274.59;;;4.50;96.92
10978;BME280;5542;48.272;10.794;2023-04-20T10:53:46;95278.63;;;4.53;96.77
10978;BME280;5542;48.272;10.794;2023-04-20T10:56:22;95281.44;;;4.51;96.76
10978;BME280;5542;48.272;10.794;2023-04-20T10:58:49;95283.00;;;4.46;97.05
10978;BME280;5542;48.272;10.794;2023-04-20T11:01:17;95273.78;;;4.50;97.92
10978;BME280;5542;48.272;10.794;2023-04-20T11:03:48;95268.59;;;4.50;97.57
10978;BME280;5542;48.272;10.794;2023-04-20T11:06:16;95259.19;;;4.49;98.51
10978;BME280;5542;48.272;10.794;2023-04-20T11:08:42;95255.78;;;4.48;98.34
10978;BME280;5542;48.272;10.794;2023-04-20T11:11:19;95262.56;;;4.76;98.62
10978;BME280;5542;48.272;10.794;2023-04-20T11:13:46;95250.91;;;4.78;98.45
10978;BME280;5542;48.272;10.794;2023-04-20T11:16:14;95254.16;;;4.80;97.18
10978;BME280;5542;48.272;10.794;2023-04-20T11:18:50;95241.31;;;4.72;97.05
10978;BME280;5542;48.272;10.794;2023-04-20T11:21:17;95245.94;;;4.77;96.30
10978;BME280;5542;48.272;10.794;2023-04-20T11:23:44;95237.53;;;4.68;96.56
10978;BME280;5542;48.272;10.794;2023-04-20T11:26:11;95240.72;;;4.77;97.81
10978;BME280;5542;48.272;10.794;2023-04-20T11:28:37;95236.13;;;4.72;98.11
10978;BME280;5542;48.272;10.794;2023-04-20T11:31:04;95229.69;;;4.81;96.67
10978;BME280;5542;48.272;10.794;2023-04-20T11:33:31;95221.25;;;4.79;96.69
10978;BME280;5542;48.272;10.794;2023-04-20T11:35:59;95216.25;;;4.84;96.77
10978;BME280;5542;48.272;10.794;2023-04-20T11:38:28;95207.66;;;4.77;97.59
10978;BME280;5542;48.272;10.794;2023-04-20T11:40:55;95206.41;;;4.86;97.48
10978;BME280;5542;48.272;10.794;2023-04-20T11:43:21;95202.63;;;4.82;98.75
10978;BME280;5542;48.272;10.794;2023-04-20T11:45:48;95198.38;;;4.95;96.83
10978;BME280;5542;48.272;10.794;2023-04-20T11:48:15;95203.59;;;4.88;96.25
10978;BME280;5542;48.272;10.794;2023-04-20T11:50:42;95204.81;;;4.85;95.29
10978;BME280;5542;48.272;10.794;2023-04-20T11:53:10;95204.78;;;4.99;93.42
10978;BME280;5542;48.272;10.794;2023-04-20T11:55:39;95207.56;;;5.04;93.05
10978;BME280;5542;48.272;10.794;2023-04-20T11:58:05;95202.72;;;5.14;93.45
10978;BME280;5542;48.272;10.794;2023-04-20T12:00:32;95213.28;;;5.32;94.76
10978;BME280;5542;48.272;10.794;2023-04-20T12:02:59;95215.88;;;5.32;93.73
10978;BME280;5542;48.272;10.794;2023-04-20T12:05:26;95224.28;;;5.34;93.61
10978;BME280;5542;48.272;10.794;2023-04-20T12:07:52;95222.69;;;5.33;93.51
10978;BME280;5542;48.272;10.794;2023-04-20T12:10:20;95228.22;;;5.50;93.06
10978;BME280;5542;48.272;10.794;2023-04-20T12:12:47;95228.44;;;5.49;92.41
10978;BME280;5542;48.272;10.794;2023-04-20T12:15:14;95233.81;;;5.54;91.79
10978;BME280;5542;48.272;10.794;2023-04-20T12:17:41;95238.41;;;5.58;91.55
10978;BME280;5542;48.272;10.794;2023-04-20T12:20:08;95227.75;;;5.60;91.13
10978;BME280;5542;48.272;10.794;2023-04-20T12:22:36;95234.25;;;5.51;89.30
10978;BME280;5542;48.272;10.794;2023-04-20T12:25:03;95234.31;;;5.37;90.75
10978;BME280;5542;48.272;10.794;2023-04-20T12:27:32;95243.50;;;5.47;91.13
10978;BME280;5542;48.272;10.794;2023-04-20T12:29:58;95245.09;;;5.48;89.22
10978;BME280;5542;48.272;10.794;2023-04-20T12:32:25;95241.03;;;5.58;88.78
10978;BME280;5542;48.272;10.794;2023-04-20T12:34:51;95247.88;;;5.53;88.12
10978;BME280;5542;48.272;10.794;2023-04-20T12:37:18;95242.94;;;5.38;88.88
10978;BME280;5542;48.272;10.794;2023-04-20T12:39:45;95235.16;;;5.25;89.86
10978;BME280;5542;48.272;10.794;2023-04-20T12:42:11;95236.31;;;5.35;90.26
10978;BME280;5542;48.272;10.794;2023-04-20T12:44:39;95230.13;;;5.30;89.75
10978;BME280;5542;48.272;10.794;2023-04-20T12:47:06;95235.34;;;5.36;89.41
10978;BME280;5542;48.272;10.794;2023-04-20T12:49:32;95230.91;;;5.37;89.44
10978;BME280;5542;48.272;10.794;2023-04-20T12:51:59;95226.06;;;5.40;90.14
10978;BME280;5542;48.272;10.794;2023-04-20T12:54:25;95224.69;;;5.38;89.16
10978;BME280;5542;48.272;10.794;2023-04-20T12:56:52;95224.81;;;5.50;89.55
10978;BME280;5542;48.272;10.794;2023-04-20T12:59:19;95222.13;;;5.63;90.76
10978;BME280;5542;48.272;10.794;2023-04-20T13:01:46;95220.09;;;5.72;88.33
10978;BME280;5542;48.272;10.794;2023-04-20T13:04:13;95206.72;;;5.61;88.83
10978;BME280;5542;48.272;10.794;2023-04-20T13:06:40;95216.19;;;5.49;89.69
10978;BME280;5542;48.272;10.794;2023-04-20T13:09:06;95212.66;;;5.75;89.66
10978;BME280;5542;48.272;10.794;2023-04-20T13:11:33;95218.69;;;5.69;89.32